Home > Products > Valid Products > MTR

000
SAUS41 KCAR 202316
MTR40B
METAR K40B 202316Z AUTO 00000KT 06/M07 A3026 RMK AO1 SLP257
     T00621069 57015





000
SAUS41 KCAR 202257
MTRGNR
METAR KGNR 202256Z AUTO 20005KT 09/M12 A3027 RMK AO1 SLP264
T00941122





000
SAUS41 KCAR 202216
MTR40B
METAR K40B 202216Z AUTO VRB04KT 10/M13 A3027 RMK AO1 SLP263
     T00971135 57016





000
SAUS41 KCAR 202157
MTRGNR
METAR KGNR 202156Z AUTO 19006KT 11/M14 A3028 RMK AO1 SLP267
T01061139





000
SAUS41 KCAR 202116
MTR40B
METAR K40B 202116Z AUTO VRB03KT 11/M14 A3028 RMK AO1 SLP269
     T01101136 57018





000
SAUS41 KCAR 202057
MTRGNR
METAR KGNR 202056Z AUTO VRB06KT 11/M12 A3030 RMK AO1 SLP273
T01111117 56015





000
SAUS41 KCAR 202016
MTR40B
METAR K40B 202016Z AUTO VRB02KT 12/M12 A3030 RMK AO1 SLP277
     T01171120 57022





000
SAUS41 KCAR 201957
MTRGNR
METAR KGNR 201956Z AUTO VRB04KT 11/M14 A3030 RMK AO1 SLP276
T01061139





000
SAUS41 KCAR 201916
MTR40B
METAR K40B 201916Z AUTO VRB03KT 10/M11 A3032 RMK AO1 SLP285
     T01021110 57025





000
SAUS41 KCAR 201857
MTRGNR
METAR KGNR 201856Z AUTO VRB03KT 10/M19 A3033 RMK AO1 SLP285
T01001189





000
SAUS41 KCAR 201816
MTR40B
METAR K40B 201816Z AUTO VRB03KT 10/M16 A3034 RMK AO1 SLP294
     T00971155 10100 20004 57025





000
SAUS41 KCAR 201757
MTRGNR
METAR KGNR 201756Z AUTO 00000KT 08/M18 A3034 RMK AO1 SLP291
T00831183 10083 20000 56022





000
SAUS41 KCAR 201716
MTR40B
METAR K40B 201716Z AUTO 00000KT 09/M12 A3037 RMK AO1 SLP305
     T00861123 57028





000
SAUS41 KCAR 201657
MTRGNR
METAR KGNR 201656Z AUTO VRB03KT 07/M10 A3037 RMK AO1 SLP299
T00721100





000
SAUS41 KCAR 201616
MTR40B
METAR K40B 201616Z AUTO VRB04KT 07/M08 A3040 RMK AO1 SLP317
     T00691083 57025





000
SAUS41 KCAR 201557
MTRGNR
METAR KGNR 201556Z AUTO VRB05KT 06/M10 A3038 RMK AO1 SLP303
T00561100





000
SAUS41 KCAR 201516
MTR40B
METAR K40B 201516Z AUTO VRB04KT 05/M09 A3042 RMK AO1 SLP324
     T00531093 58023





000
SAUS41 KCAR 201457
MTRGNR
METAR KGNR 201456Z AUTO 32005KT 04/M09 A3041 RMK AO1 SLP315
T00391089 58008





000
SAUS41 KCAR 201416
MTR40B
METAR K40B 201416Z AUTO VRB04KT 04/M09 A3045 RMK AO1 SLP337
     T00391092 58008





000
SAUS41 KCAR 201357
MTRGNR
METAR KGNR 201356Z AUTO 32007KT 03/M09 A3043 RMK AO1 SLP323
T00281089





000
SAUS41 KCAR 201316
MTR40B
METAR K40B 201316Z AUTO VRB03KT 02/M10 A3047 RMK AO1 SLP344
     T00201098 50005





000
SAUS41 KCAR 201257
MTRGNR
METAR KGNR 201256Z AUTO 35007KT 01/M09 A3044 RMK AO1 SLP327
T00111089





000
SAUS41 KCAR 201216
MTR40B
METAR K40B 201216Z AUTO 00000KT 01/M08 A3049 RMK AO1 SLP349
     T00141084 10017 21054 51018 60001 70002





000
SAUS41 KCAR 201157
MTRGNR
METAR KGNR 201156Z AUTO 33008KT 270V360 00/M09 A3044 RMK AO1 SLP325
70006 T00001094 10000 21033 51016





000
SAUS41 KCAR 201116
MTR40B
METAR K40B 201116Z AUTO VRB02KT M02/M07 A3048 RMK AO1 SLP345
     T10221071 52024 P0001





000
SAUS41 KCAR 201057
MTRGNR
METAR KGNR 201056Z AUTO 35006KT M02/M09 A3043 RMK AO1 SLP324
T10171094





000
SAUS41 KCAR 201016
MTR40B
METAR K40B 201016Z AUTO 00000KT M05/M08 A3046 RMK AO1 SLP338
     T10501080 53023





000
SAUS41 KCAR 200957
MTRGNR
METAR KGNR 200956Z AUTO 33005KT M03/M09 A3041 RMK AO1 SLP318
T10331094





000
SAUS41 KCAR 200916
MTR40B
METAR K40B 200916Z AUTO 00000KT M05/M08 A3043 RMK AO1 SLP328
     T10481077 53020





000
SAUS41 KCAR 200857
MTRGNR
METAR KGNR 200856Z AUTO 33009KT M03/M09 A3039 RMK AO1 SLP309
T10281094 51012





000
SAUS41 KCAR 200816
MTR40B
METAR K40B 200816Z AUTO VRB03KT M04/M07 A3040 RMK AO1 SLP317
     T10401074 52013





000
SAUS41 KCAR 200757
MTRGNR
METAR KGNR 200756Z AUTO 32007KT M03/M09 A3038 RMK AO1 SLP306
T10281089





000
SAUS41 KCAR 200716
MTR40B
METAR K40B 200716Z AUTO 00000KT M04/M07 A3039 RMK AO1 SLP311
     T10421065 53011





000
SAUS41 KCAR 200657
MTRGNR
METAR KGNR 200656Z AUTO 31004KT M02/M08 A3036 RMK AO1 SLP300
T10221078





000
SAUS41 KCAR 200616
MTR40B
METAR K40B 200616Z AUTO 00000KT M04/M06 A3037 RMK AO1 SLP304
     T10371065 10022 21038 52010 P0001 60001





000
SAUS41 KCAR 200557
MTRGNR
METAR KGNR 200556Z AUTO 32004KT M02/M08 A3035 RMK AO1 SLP295
T10171083 10022 21022 51018





000
SAUS41 KCAR 200516
MTR40B
METAR K40B 200516Z AUTO 00000KT M03/M06 A3036 RMK AO1 SLP300
     T10261064 400691030 52011 P0000





000
SAUS41 KCAR 200457
MTRGNR
METAR KGNR 200456Z AUTO 33006KT M01/M08 A3033 RMK AO1 SLP289
T10111083 400561011





000
SAUS41 KCAR 200416
MTR40B
METAR K40B 200416Z AUTO 00000KT M02/M06 A3035 RMK AO1 SLP295
     T10201063 51016





000
SAUS41 KCAR 200357
MTRGNR
METAR KGNR 200356Z AUTO 33008KT M01/M08 A3031 RMK AO1 SLP283
T10061083





000
SAUS41 KCAR 200316
MTR40B
METAR K40B 200316Z AUTO VRB03KT M02/M06 A3034 RMK AO1 SLP290
     T10161057 51018 60000





000
SAUS41 KCAR 200257
MTRGNR
METAR KGNR 200256Z AUTO 34009G18KT 01/M09 A3029 RMK AO1 SLP276
T00061089 51022





000
SAUS41 KCAR 200216
MTR40B
METAR K40B 200216Z AUTO VRB03KT 01/M07 A3033 RMK AO1 SLP285
     T00061071 51025





000
SAUS41 KCAR 200157
MTRGNR
METAR KGNR 200156Z AUTO 34009KT 01/M09 A3028 RMK AO1 SLP272
T00111094





000
SAUS41 KCAR 200116
MTR40B
METAR K40B 200116Z AUTO VRB04KT 01/M07 A3030 RMK AO1 SLP276
     T00091071 51027 P0000





000
SAUS41 KCAR 200057
MTRGNR
METAR KGNR 200056Z AUTO 34012KT 02/M08 A3026 RMK AO1 SLP263
T00221083





000
SAUS41 KCAR 200016
MTR40B
METAR K40B 200016Z AUTO VRB04KT 02/M07 A3029 RMK AO1 SLP270
     T00211073 10065 20020 52030





000
SAUS41 KCAR 192357
MTRGNR
METAR KGNR 192356Z AUTO 33014G21KT 02/M08 A3022 RMK AO1 SLP253
T00221078 10056 20022 51020





000
SAUS41 KCAR 192316
MTR40B
METAR K40B 192316Z AUTO VRB05G15KT 03/M07 A3026 RMK AO1 SLP259
     T00341073 52032





000
SAUS41 KCAR 192257
MTRGNR
METAR KGNR 192256Z AUTO 32008KT 02/M06 A3021 RMK AO1 SLP249
T00221061





000
SAUS41 KCAR 192216
MTR40B
METAR K40B 192216Z AUTO VRB05G12KT 04/M07 A3023 RMK AO1 SLP249
     T00421065 52027





000
SAUS41 KCAR 192157
MTRGNR
METAR KGNR 192156Z AUTO 32011G23KT 03/M06 A3020 RMK AO1 SLP245
T00281061





000
SAUS41 KCAR 192116
MTR40B
METAR K40B 192116Z AUTO 29007G15KT 230V000 05/M07 A3019 RMK AO1
     SLP239 T00451068 51027





000
SAUS41 KCAR 192057
MTRGNR
METAR KGNR 192056Z AUTO 32017G28KT 03/M05 A3016 RMK AO1 PK WND
34030/2006 SLP232 T00281050 53022





000
SAUS41 KCAR 192016
MTR40B
METAR K40B 192016Z AUTO VRB03G21KT 05/M06 A3016 RMK AO1 SLP228
     T00501058 52020





000
SAUS41 KCAR 191957
MTRGNR
METAR KGNR 191956Z AUTO 32015G26KT 03/M04 A3013 RMK AO1 PK WND
32029/1940 SLP219 T00331039





000
SAUS41 KCAR 191916
MTR40B
METAR K40B 191916Z AUTO VRB06G23KT 05/M05 A3014 RMK AO1 PK WND
     25025/1829 SLP222 T00511054 52019





000
SAUS41 KCAR 191857
MTRGNR
METAR KGNR 191856Z AUTO 32012G24KT 04/M03 A3010 RMK AO1 SLP211
T00441028





000
SAUS41 KCAR 191816
MTR40B
METAR K40B 191816Z AUTO 30007G16KT 240V030 06/M06 A3011 RMK AO1
     SLP214 T00581055 10069 20030 52014





000
SAUS41 KCAR 191757
MTRGNR
METAR KGNR 191756Z AUTO 31011G16KT 270V330 04/M02 A3010 RMK AO1
SLP209 60006 T00441017 10050 20000 53006





000
SAUS41 KCAR 191716
MTR40B
METAR K40B 191716Z AUTO VRB05G14KT 07/M02 A3010 RMK AO1 SLP209
     T00661023 53009





000
SAUS41 KCAR 191657
MTRGNR
METAR KGNR 191656Z AUTO 31008G16KT 270V330 04/M01 A3008 RMK AO1
SLP204 T00391006





000
SAUS41 KCAR 191616
MTR40B
METAR K40B 191616Z AUTO 26007G17KT 200V350 07/M02 A3008 RMK AO1
     SLP203 T00661020 51010





000
SAUS41 KCAR 191557
MTRGNR
METAR KGNR 191556Z AUTO 31008G17KT 04/01 A3008 RMK AO1 SLP203
T00390011





000
SAUS41 KCAR 191516
MTR40B
METAR K40B 191516Z AUTO VRB04KT 06/M03 A3007 RMK AO1 SLP202
     T00561025 51011





000
SAUS41 KCAR 191457
MTRGNR
METAR KGNR 191456Z AUTO 31008KT 230V360 02/01 A3008 RMK AO1 SLP203
60006 T00220006 51010





000
SAUS41 KCAR 191416
MTR40B
METAR K40B 191416Z AUTO VRB04KT 05/M02 A3007 RMK AO1 SLP200
     T00501022 52013





000
SAUS41 KCAR 191357
MTRGNR
METAR KGNR 191356Z AUTO VRB04KT 01/00 A3007 RMK AO1 SLP200 T00110000





000
SAUS41 KCAR 191316
MTR40B
METAR K40B 191316Z AUTO VRB02KT 05/M04 A3005 RMK AO1 SLP194
     T00451040 51012





000
SAUS41 KCAR 191257
MTRGNR
METAR KGNR 191256Z AUTO VRB03KT 01/00 A3006 RMK AO1 SLP196 P0006
T00060000





000
SAUS41 KCAR 191216
MTR40B
METAR K40B 191216Z AUTO 00000KT 03/M04 A3004 RMK AO1 SLP191
     T00301042 10030 21006 53008 P0000 60000 70001





000
SAUS41 KCAR 191157
MTRGNR
METAR KGNR 191156Z AUTO VRB05KT 00/M01 A3005 RMK AO1 SLP191 P0007
60007 70007 T00001006 10006 21011 53009





000
SAUS41 KCAR 191116
MTR40B
METAR K40B 191116Z AUTO 00000KT 01/M03 A3003 RMK AO1 SLP187
     T00131030 55001





000
SAUS41 KCAR 191057
MTRGNR
METAR KGNR 191056Z AUTO 00000KT 01/M03 A3004 RMK AO1 SLP186
T00061033





000
SAUS41 KCAR 191016
MTR40B
METAR K40B 191016Z AUTO 00000KT 00/M03 A3002 RMK AO1 SLP181
     T10021026 56011





000
SAUS41 KCAR 190957
MTRGNR
METAR KGNR 190956Z AUTO 00000KT 00/M03 A3002 RMK AO1 SLP181
T00001033





000
SAUS41 KCAR 190916
MTR40B
METAR K40B 190916Z AUTO 00000KT 00/M03 A3002 RMK AO1 SLP180
     T10031026 57016





000
SAUS41 KCAR 190857
MTRGNR
METAR KGNR 190856Z AUTO 00000KT M01/M03 A3002 RMK AO1 SLP180
T10061033 56018





000
SAUS41 KCAR 190816
MTR40B
METAR K40B 190816Z AUTO 00000KT 00/M03 A3003 RMK AO1 SLP183
     T00041034 57019





000
SAUS41 KCAR 190757
MTRGNR
METAR KGNR 190756Z AUTO 00000KT M01/M03 A3003 RMK AO1 SLP185
T10111033





000
SAUS41 KCAR 190716
MTR40B
METAR K40B 190716Z AUTO 00000KT 01/M04 A3005 RMK AO1 SLP189
     T00091037 57019





000
SAUS41 KCAR 190657
MTRGNR
METAR KGNR 190656Z AUTO 00000KT M01/M03 A3005 RMK AO1 SLP192
T10111033





000
SAUS41 KCAR 190616
MTR40B
METAR K40B 190616Z AUTO 00000KT 01/M03 A3007 RMK AO1 SLP194
     T00111033 10051 20004 57021 60000





000
SAUS41 KCAR 190557
MTRGNR
METAR KGNR 190556Z AUTO 13004KT M01/M04 A3008 RMK AO1 SLP200
T10111039 10039 21011 58025





000
SAUS41 KCAR 190516
MTR40B
METAR K40B 190516Z AUTO 00000KT 02/M04 A3009 RMK AO1 SLP200
     T00161041 400891060 57023





000
SAUS41 KCAR 190457
MTRGNR
METAR KGNR 190456Z AUTO 00000KT M01/M04 A3011 RMK AO1 SLP212
T10111039 400671039





000
SAUS41 KCAR 190416
MTR40B
METAR K40B 190416Z AUTO 00000KT 01/M04 A3011 RMK AO1 SLP207
     T00111039 58016





000
SAUS41 KCAR 190357
MTRGNR
METAR KGNR 190356Z AUTO VRB05KT M01/M04 A3012 RMK AO1 SLP217
T10061039





000
SAUS41 KCAR 190316
MTR40B
METAR K40B 190316Z AUTO VRB02KT 03/M05 A3013 RMK AO1 SLP213
     T00281048 58011 60000





000
SAUS41 KCAR 190257
MTRGNR
METAR KGNR 190256Z AUTO 00000KT 00/M04 A3015 RMK AO1 SLP229
T00001044 55005





000
SAUS41 KCAR 190216
MTR40B
METAR K40B 190216Z AUTO 00000KT 03/M05 A3016 RMK AO1 SLP223
     T00321052 55009 P0000





000
SAUS41 KCAR 190157
MTRGNR
METAR KGNR 190156Z AUTO VRB04KT 01/M04 A3015 RMK AO1 SLP228
T00061044





000
SAUS41 KCAR 190116
MTR40B
METAR K40B 190116Z AUTO VRB05KT 04/M06 A3015 RMK AO1 SLP223
     T00441056 56021





000
SAUS41 KCAR 190057
MTRGNR
METAR KGNR 190056Z AUTO 15006KT 02/M05 A3017 RMK AO1 SLP234
T00221050





000
SAUS41 KCAR 190016
MTR40B
METAR K40B 190016Z AUTO 17009G13KT 05/M06 A3016 RMK AO1 SLP225
     T00501057 10089 20046 58024





000
SAUS41 KCAR 182357
MTRGNR
METAR KGNR 182356Z AUTO VRB04KT 04/M05 A3017 RMK AO1 SLP234
T00391050 10067 20039 58027





000
SAUS41 KCAR 182316
MTR40B
METAR K40B 182316Z AUTO 16007G12KT 06/M08 A3018 RMK AO1 SLP234
     T00571083 58024





000
SAUS41 KCAR 182257
MTRGNR
METAR KGNR 182256Z AUTO 18004KT 06/M07 A3020 RMK AO1 SLP245
T00561067





000
SAUS41 KCAR 182216
MTR40B
METAR K40B 182216Z AUTO 18012G19KT 06/M08 A3022 RMK AO1 SLP247
     T00621081 57020





000
SAUS41 KCAR 182158
MTRGNR
METAR KGNR 182156Z AUTO 18006KT 06/M07 A3023 RMK AO1 SLP256
T00611067





000
SAUS41 KCAR 182116
MTR40B
METAR K40B 182116Z AUTO 18011G15KT 07/M09 A3023 RMK AO1 SLP253
     T00741086 56031





000
SAUS41 KCAR 182058
MTRGNR
METAR KGNR 182056Z AUTO VRB06G14KT 06/M07 A3025 RMK AO1 SLP262
T00611072 56030





000
SAUS41 KCAR 182016
MTR40B
METAR K40B 182016Z AUTO 18013G20KT 140V200 08/M09 A3026 RMK AO1
     SLP263 T00831088 56036





000
SAUS41 KCAR 181957
MTRGNR
METAR KGNR 181956Z AUTO VRB06KT 07/M07 A3029 RMK AO1 SLP275
T00671067





000
SAUS41 KCAR 181916
MTR40B
METAR K40B 181916Z AUTO 17012G17KT 08/M09 A3028 RMK AO1 SLP273
     T00801094 58040





000
SAUS41 KCAR 181857
MTRGNR
METAR KGNR 181856Z AUTO 16007KT 100V190 07/M07 A3030 RMK AO1 SLP279
T00671072





000
SAUS41 KCAR 181816
MTR40B
METAR K40B 181816Z AUTO 18012G18KT 08/M10 A3033 RMK AO1 SLP291
     T00781098 10086 21002 57037





000
SAUS41 KCAR 181757
MTRGNR
METAR KGNR 181756Z AUTO VRB04KT 06/M08 A3035 RMK AO1 SLP294
T00611083 10061 21017 58038





000
SAUS41 KCAR 181716
MTR40B
METAR K40B 181716Z AUTO 17006G15KT 120V200 08/M11 A3037 RMK AO1
     SLP306 T00791105 58027





000
SAUS41 KCAR 181657
MTRGNR
METAR KGNR 181656Z AUTO 17008G14KT 06/M08 A3038 RMK AO1 SLP307
T00561078





000
SAUS41 KCAR 181616
MTR40B
METAR K40B 181616Z AUTO 18011G14KT 06/M11 A3040 RMK AO1 SLP319
     T00651108 58025





000
SAUS41 KCAR 181557
MTRGNR
METAR KGNR 181556Z AUTO 15007KT 110V190 04/M07 A3043 RMK AO1 SLP322
T00441067





000
SAUS41 KCAR 181516
MTR40B
METAR K40B 181516Z AUTO VRB06KT 05/M09 A3044 RMK AO1 SLP334
     T00531095 57018





000
SAUS41 KCAR 181457
MTRGNR
METAR KGNR 181456Z AUTO 17008KT 03/M08 A3046 RMK AO1 SLP334
T00331078 55013





000
SAUS41 KCAR 181416
MTR40B
METAR K40B 181416Z AUTO 19012KT 03/M11 A3045 RMK AO1 SLP338
     T00321107 57024





000
SAUS41 KCAR 181357
MTRGNR
METAR KGNR 181356Z AUTO VRB05KT 02/M07 A3046 RMK AO1 SLP334
T00221072





000
SAUS41 KCAR 181316
MTR40B
METAR K40B 181316Z AUTO 16007G13KT 120V210 01/M09 A3048 RMK AO1
     SLP348 T00141087 57020





000
SAUS41 KCAR 181257
MTRGNR
METAR KGNR 181256Z AUTO VRB05KT 00/M07 A3048 RMK AO1 SLP340
T00001072





000
SAUS41 KCAR 181216
MTR40B
METAR K40B 181216Z AUTO 17009G13KT 130V190 00/M08 A3050 RMK AO1
     SLP354 T10021081 11002 21060 58020 60001 70003





000
SAUS41 KCAR 181157
MTRGNR
METAR KGNR 181156Z AUTO 14005KT M02/M08 A3050 RMK AO1 SLP349
T10171083 11017 21039 58012





000
SAUS41 KCAR 181116
MTR40B
METAR K40B 181116Z AUTO VRB05KT M02/M08 A3053 RMK AO1 SLP364
     T10171081 58010 P0000





000
SAUS41 KCAR 181057
MTRGNR
METAR KGNR 181056Z AUTO VRB03KT M03/M08 A3053 RMK AO1 SLP357
T10281083





000
SAUS41 KCAR 181016
MTR40B
METAR K40B 181016Z AUTO 00000KT M04/M08 A3054 RMK AO1 SLP368
     T10351080 57009 P0000





000
SAUS41 KCAR 180957
MTRGNR
METAR KGNR 180956Z AUTO 00000KT M04/M09 A3054 RMK AO1 SLP363
T10391089





000
SAUS41 KCAR 180916
MTR40B
METAR K40B 180916Z AUTO 00000KT M05/M08 A3056 RMK AO1 SLP372
     T10541082 57006





000
SAUS41 KCAR 180857
MTRGNR
METAR KGNR 180856Z AUTO 17003KT M04/M09 A3054 RMK AO1 SLP361
T10391089 56011





000
SAUS41 KCAR 180816
MTR40B
METAR K40B 180816Z AUTO 00000KT M06/M07 A3056 RMK AO1 SLP371
     T10571072 57011





000
SAUS41 KCAR 180757
MTRGNR
METAR KGNR 180756Z AUTO 00000KT M03/M08 A3055 RMK AO1 SLP364
T10331083





000
SAUS41 KCAR 180716
MTR40B
METAR K40B 180716Z AUTO 00000KT M06/M08 A3057 RMK AO1 SLP374
     T10551075 57013





000
SAUS41 KCAR 180657
MTRGNR
METAR KGNR 180656Z AUTO 17004KT M03/M08 A3055 RMK AO1 SLP366
T10331078





000
SAUS41 KCAR 180616
MTR40B
METAR K40B 180616Z AUTO 00000KT M04/M08 A3058 RMK AO1 SLP375
     T10441077 10003 21046 57016 60001





000
SAUS41 KCAR 180557
MTRGNR
METAR KGNR 180556Z AUTO 15003KT M04/M08 A3057 RMK AO1 SLP374
T10391078 10006 21039 58013





000
SAUS41 KCAR 180516
MTR40B
METAR K40B 180516Z AUTO 00000KT M04/M06 A3059 RMK AO1 SLP380
     T10361064 400601144 57014





000
SAUS41 KCAR 180457
MTRGNR
METAR KGNR 180456Z AUTO 14003KT M03/M09 A3059 RMK AO1 SLP380
T10281089 400391100





000
SAUS41 KCAR 180416
MTR40B
METAR K40B 180416Z AUTO 00000KT M03/M06 A3061 RMK AO1 SLP385
     T10341063 57012 P0000





000
SAUS41 KCAR 180357
MTRGNR
METAR KGNR 180356Z AUTO 15004KT M02/M10 A3060 RMK AO1 SLP383
T10221100





000
SAUS41 KCAR 180316
MTR40B
METAR K40B 180316Z AUTO 00000KT M03/M06 A3062 RMK AO1 SLP389
     T10311063 58006 60001





000
SAUS41 KCAR 180257
MTRGNR
METAR KGNR 180256Z AUTO 12004KT M02/M11 A3061 RMK AO1 SLP388
T10171111 58010





000
SAUS41 KCAR 180216
MTR40B
METAR K40B 180216Z AUTO 00000KT M02/M06 A3063 RMK AO1 SLP392
     T10201064 58007 P0000





000
SAUS41 KCAR 180157
MTRGNR
METAR KGNR 180156Z AUTO 15003KT M01/M10 A3062 RMK AO1 SLP391
T10111100





000
SAUS41 KCAR 180116
MTR40B
METAR K40B 180116Z AUTO 00000KT M01/M06 A3065 RMK AO1 SLP397
     T10121063 55006 P0000





000
SAUS41 KCAR 180057
MTRGNR
METAR KGNR 180056Z AUTO 00000KT M01/M11 A3064 RMK AO1 SLP397
T10061106





000
SAUS41 KCAR 180016
MTR40B
METAR K40B 180016Z AUTO 00000KT M02/M06 A3064 RMK AO1 SLP395
     T10161058 10060 21015 57012 P0001 60001





000
SAUS41 KCAR 172357
MTRGNR
METAR KGNR 172356Z AUTO 00000KT 01/M11 A3064 RMK AO1 SLP400
T00061106 10039 20006 56005





    US Dept of Commerce
    National Oceanic and Atmospheric Administration
    National Weather Service
    1325 East West Highway
    Silver Spring, MD 20910
    Page Author: NWS Internet Services Team
Disclaimer
Information Quality
Credits
Glossary
Privacy Policy
Freedom of Information Act (FOIA)
About Us
Career Opportunities